OOLO2: Oologah Lake

Data processed at Thu Feb 14 2019 23:32


All information presented herein is the property of the government of the United States of America and may be revised or deleted at any time without prior notice.
Dissemination of this information without the expressed written consent of the Public Affairs Office, Tulsa District U.S. Army Corps of Engineers is strictly prohibited.
These data are gathered electronically and, as presented, have not undergone any form of quality control. These data are not guaranteed to be valid or correct.
Go to home page.
Go to station list.
Go to home page.

Upstream stations:

Downstream station:
Previous Day
Next Day
Current Day
    
SHEF ID:       OOLO2     Oologah Lake
STATION TYPE:  RESERVOIR
Flood Pool:  Bottom =   638.00, Top =   661.00

               PRECIP     STAGE  RIV-FLOW ELEVATION   STORAGE   TW-ELEV    INFLOW   RELEASE  AIR-TEMP  WIND-DIRWIND-SPEED REL-HUMID SOLAR-RAD   VOLTAGE  BAT-LOAD
                   in        ft       cfs        ft     ac-ft        ft       cfs       cfs         F       deg       mph         %      W/m2      volt      volt
              Ccp-Rev   Ccp-Rev   Ccp-Rev   Ccp-Rev   Ccp-Rev   Ccp-Rev  Rev-Regi  Rev-Regi   Ccp-Rev   Ccp-Rev   Ccp-Rev   Ccp-Rev   Ccp-Rev   Ccp-Rev   Ccp-Rev
(US/Central)
02/14 00:00      0.00     13.48      2709    638.15    461573      ----       700      2239     51.01    158.20      6.60     44.31      0.00     13.46     13.37
02/14 01:00      0.00     13.48      2709    638.16    461867      ----       632      2239     50.70    160.30      7.00     46.27      0.00     13.45     13.37
02/14 02:00      0.00     13.48      2709    638.12    460690      ----      1792      2239     50.67    162.60      7.80     47.91      0.00     13.45     13.37
02/14 03:00      0.00     13.47      2700    638.14    461279      ----      1883      2239     51.48    165.10      7.30     47.92      0.00     13.45     13.37
02/14 04:00      0.00     13.47      2700    638.23    463926      ----      1344      2240     52.02    165.80      7.60     47.10      0.00     13.44     13.37
02/14 05:00      0.00     13.47      2700    638.16    461867      ----      5351      2240     52.86    171.30      8.50     44.71      0.00     13.45     13.37
02/14 06:00      0.00     13.47      2700    638.14    461279      ----      5799      2239     53.38    169.30      8.40     43.47      0.00     13.44     13.37
02/14 07:00      0.00     13.47      2700    638.19    462750      ----      6511      2240     53.55    171.00      8.00     43.84      0.00     13.43     13.37
02/14 08:00      0.00     13.47      2700    638.19    462750      ----      8028      2240     54.19    176.30      8.90     43.35      7.40     13.42     13.37
02/14 09:00      0.00      ----      ----    638.21    463338      ----      7936      2240     54.99    179.00      9.90     43.48    103.10     13.43     13.37
02/14 10:00      0.00      ----      ----    638.24    464221      ----      7224      2240     56.25    182.50      8.50     42.20    222.10     13.45     13.13
02/14 11:00      0.00     13.46      2691    638.22    463632      ----      7672      2241     57.63    181.10      7.80     40.69    286.20     13.44     13.37
02/14 12:00      0.00     13.46      2691    638.26    464809      ----      5800      2241     59.70    193.50      8.20     35.18    303.60     13.45     13.37
02/14 13:00      0.00     13.46      2691    638.27    465103      ----      5353      2241     60.21    205.00      7.30     33.33    293.60     13.45     13.37
02/14 14:00      0.00     13.45      2682    638.26    464809      ----      5801      2241     61.09    198.00      4.40     33.22    248.50     13.44     13.37
02/14 15:00      0.00     13.45      2682    638.27    465103      ----      2953      2241     61.47    227.70      4.50     32.59    221.80     13.44     13.29
02/14 16:00      0.00     13.45      2682    638.27    465103      ----      2953      2241     62.83    233.20      3.20     30.76    371.10     13.44     13.29
02/14 17:00      0.00     13.44      2673    638.27    465103      ----      2953      2241     63.59    296.70      2.40     30.03    205.30     13.46     13.29
02/14 18:00      0.00     13.44      2673    638.28    465397      ----      5089      2241     61.97     34.80      1.90     32.61     34.90     13.45     13.37
02/14 19:00      0.00     13.45      2682    638.27    465103      ----      7411      2241     58.86    339.40      5.20     38.49      0.00     13.46     13.29
02/14 20:00      0.00     13.44      2673    638.31    466280      ----      6963      2241     56.16    326.10      9.90     46.98      0.00     13.46     13.37
02/14 21:00      0.00     13.44      2673    638.56    473635      ----      6066      2244     47.01    328.50     14.40     65.05      0.00     13.47     13.37
02/14 22:00      0.00     13.45      2682    638.41    469222      ----      6066      2245     38.14    325.90     11.80     68.25      0.00     13.47     13.37
02/14 23:00      0.00     13.45      2682    638.33    466868      ----      2770      2243     34.54    325.10      7.90     73.61      0.00     13.46     13.29